Time,TemperatureF,DewpointF,PressureIn,WindDirection,WindDirectionDegrees,WindSpeedMPH,WindSpeedGustMPH,Humidity,HourlyPrecipIn,Conditions,Clouds,dailyrainin,SolarRadiationWatts/m^2,SoftwareType,DateUTC
2013-01-08 00:01:00,30.0,19.0,-100.00,SW,218,3.0,5.0,63,0.00,,,0.00,0.000000,,2013-01-08 05:01:00,
2013-01-08 00:22:00,30.0,19.0,-100.00,SW,218,3.0,5.0,63,0.00,,,0.00,0.000000,,2013-01-08 05:22:00,
2013-01-08 00:33:00,30.0,19.0,-100.00,SW,218,3.0,5.0,63,0.00,,,0.00,0.000000,,2013-01-08 05:33:00,
2013-01-08 00:43:00,30.0,19.0,-100.00,SW,218,3.0,5.0,63,0.00,,,0.00,0.000000,,2013-01-08 05:43:00,
2013-01-08 00:53:00,30.0,19.0,-100.00,SW,218,3.0,5.0,63,0.00,,,0.00,0.000000,,2013-01-08 05:53:00,
2013-01-08 01:01:00,30.0,20.0,-100.00,SSW,192,4.0,6.0,65,0.00,,,0.00,0.000000,,2013-01-08 06:01:00,
2013-01-08 01:22:00,30.0,20.0,-100.00,SSW,192,4.0,6.0,65,0.00,,,0.00,0.000000,,2013-01-08 06:22:00,
2013-01-08 01:33:00,30.0,20.0,-100.00,SSW,192,4.0,6.0,65,0.00,,,0.00,0.000000,,2013-01-08 06:33:00,
2013-01-08 01:43:00,30.0,20.0,-100.00,SSW,192,4.0,6.0,65,0.00,,,0.00,0.000000,,2013-01-08 06:43:00,
2013-01-08 01:53:00,30.0,20.0,-100.00,SSW,192,4.0,6.0,65,0.00,,,0.00,0.000000,,2013-01-08 06:53:00,
2013-01-08 02:01:00,29.0,20.0,-100.00,SSW,202,3.0,5.0,69,0.00,,,0.00,0.000000,,2013-01-08 07:01:00,
2013-01-08 02:32:00,29.0,20.0,-100.00,SSW,202,3.0,5.0,69,0.00,,,0.00,0.000000,,2013-01-08 07:32:00,
2013-01-08 02:42:00,29.0,20.0,-100.00,SSW,202,3.0,5.0,69,0.00,,,0.00,0.000000,,2013-01-08 07:42:00,
2013-01-08 02:52:00,29.0,20.0,-100.00,SSW,202,3.0,5.0,69,0.00,,,0.00,0.000000,,2013-01-08 07:52:00,
2013-01-08 03:01:00,29.0,20.0,-100.00,SSW,210,4.0,6.0,68,0.00,,,0.00,0.000000,,2013-01-08 08:01:00,
2013-01-08 03:22:00,29.0,20.0,-100.00,SSW,210,4.0,6.0,68,0.00,,,0.00,0.000000,,2013-01-08 08:22:00,
2013-01-08 03:32:00,29.0,20.0,-100.00,SSW,210,4.0,6.0,68,0.00,,,0.00,0.000000,,2013-01-08 08:32:00,
2013-01-08 03:42:00,29.0,20.0,-100.00,SSW,210,4.0,6.0,68,0.00,,,0.00,0.000000,,2013-01-08 08:42:00,
2013-01-08 03:53:00,29.0,20.0,-100.00,SSW,210,4.0,6.0,68,0.00,,,0.00,0.000000,,2013-01-08 08:53:00,
2013-01-08 04:01:00,29.0,21.0,-100.00,SSW,205,4.0,8.0,71,0.00,,,0.00,0.000000,,2013-01-08 09:01:00,
2013-01-08 04:22:00,29.0,21.0,-100.00,SSW,205,4.0,8.0,71,0.00,,,0.00,0.000000,,2013-01-08 09:22:00,
2013-01-08 04:33:00,29.0,21.0,-100.00,SSW,205,4.0,8.0,71,0.00,,,0.00,0.000000,,2013-01-08 09:33:00,
2013-01-08 04:42:00,29.0,21.0,-100.00,SSW,205,4.0,8.0,71,0.00,,,0.00,0.000000,,2013-01-08 09:42:00,
2013-01-08 04:53:00,29.0,21.0,-100.00,SSW,205,4.0,8.0,71,0.00,,,0.00,0.000000,,2013-01-08 09:53:00,
2013-01-08 05:01:00,29.0,22.0,-100.00,SSW,206,6.0,8.0,74,0.00,,,0.00,0.000000,,2013-01-08 10:01:00,
2013-01-08 05:33:00,29.0,22.0,-100.00,SSW,206,6.0,8.0,74,0.00,,,0.00,0.000000,,2013-01-08 10:33:00,
2013-01-08 05:43:00,29.0,22.0,-100.00,SSW,206,6.0,8.0,74,0.00,,,0.00,0.000000,,2013-01-08 10:43:00,
2013-01-08 05:53:00,29.0,22.0,-100.00,SSW,206,6.0,8.0,74,0.00,,,0.00,0.000000,,2013-01-08 10:53:00,
2013-01-08 06:01:00,28.0,21.0,-100.00,SW,216,5.0,7.0,76,0.00,,,0.00,0.000000,,2013-01-08 11:01:00,
2013-01-08 06:33:00,28.0,21.0,-100.00,SW,216,5.0,7.0,76,0.00,,,0.00,0.000000,,2013-01-08 11:33:00,
2013-01-08 06:43:00,28.0,21.0,-100.00,SW,216,5.0,7.0,76,0.00,,,0.00,0.000000,,2013-01-08 11:43:00,
2013-01-08 06:53:00,28.0,21.0,-100.00,SW,216,5.0,7.0,76,0.00,,,0.00,0.000000,,2013-01-08 11:53:00,
2013-01-08 07:01:00,25.0,21.0,-100.00,ENE,59,2.0,7.0,83,0.00,,,0.00,0.000000,,2013-01-08 12:01:00,
2013-01-08 07:33:00,25.0,21.0,-100.00,ENE,59,2.0,7.0,83,0.00,,,0.00,0.000000,,2013-01-08 12:33:00,
2013-01-08 07:43:00,25.0,21.0,-100.00,ENE,59,2.0,7.0,83,0.00,,,0.00,0.000000,,2013-01-08 12:43:00,
2013-01-08 07:53:00,25.0,21.0,-100.00,ENE,59,2.0,7.0,83,0.00,,,0.00,0.000000,,2013-01-08 12:53:00,
2013-01-08 08:01:00,28.0,21.0,-100.00,SW,216,5.0,6.0,76,0.00,,,0.00,6.000000,,2013-01-08 13:01:00,
2013-01-08 08:33:00,28.0,21.0,-100.00,SW,216,5.0,6.0,76,0.00,,,0.00,6.000000,,2013-01-08 13:33:00,
2013-01-08 08:43:00,28.0,21.0,-100.00,SW,216,5.0,6.0,76,0.00,,,0.00,6.000000,,2013-01-08 13:43:00,
2013-01-08 08:53:00,28.0,21.0,-100.00,SW,216,5.0,6.0,76,0.00,,,0.00,6.000000,,2013-01-08 13:53:00,
2013-01-08 09:01:00,32.0,22.0,-100.00,SSW,213,6.0,8.0,65,0.00,,,0.00,76.000000,,2013-01-08 14:01:00,
2013-01-08 09:33:00,32.0,22.0,-100.00,SSW,213,6.0,8.0,65,0.00,,,0.00,76.000000,,2013-01-08 14:33:00,
2013-01-08 09:43:00,32.0,22.0,-100.00,SSW,213,6.0,8.0,65,0.00,,,0.00,76.000000,,2013-01-08 14:43:00,
2013-01-08 09:53:00,32.0,22.0,-100.00,SSW,213,6.0,8.0,65,0.00,,,0.00,76.000000,,2013-01-08 14:53:00,
2013-01-08 10:01:00,40.0,23.0,-100.00,WSW,246,3.0,9.0,51,0.00,,,0.00,296.000000,,2013-01-08 15:01:00,
2013-01-08 10:23:00,40.0,23.0,-100.00,WSW,246,3.0,9.0,51,0.00,,,0.00,296.000000,,2013-01-08 15:23:00,
2013-01-08 10:33:00,40.0,23.0,-100.00,WSW,246,3.0,9.0,51,0.00,,,0.00,296.000000,,2013-01-08 15:33:00,
2013-01-08 10:43:00,40.0,23.0,-100.00,WSW,246,3.0,9.0,51,0.00,,,0.00,296.000000,,2013-01-08 15:43:00,
2013-01-08 10:53:00,40.0,23.0,-100.00,WSW,246,3.0,9.0,51,0.00,,,0.00,296.000000,,2013-01-08 15:53:00,
2013-01-08 11:01:00,45.0,23.0,-100.00,West,279,2.0,4.0,42,0.00,,,0.00,413.000000,,2013-01-08 16:01:00,
2013-01-08 11:34:00,45.0,23.0,-100.00,West,279,2.0,4.0,42,0.00,,,0.00,413.000000,,2013-01-08 16:34:00,
2013-01-08 11:43:00,45.0,23.0,-100.00,West,279,2.0,4.0,42,0.00,,,0.00,413.000000,,2013-01-08 16:43:00,
2013-01-08 11:53:00,45.0,23.0,-100.00,West,279,2.0,4.0,42,0.00,,,0.00,413.000000,,2013-01-08 16:53:00,
2013-01-08 12:01:00,47.0,24.0,-100.00,WSW,249,3.0,5.0,40,0.00,,,0.00,532.000000,,2013-01-08 17:01:00,
2013-01-08 12:34:00,47.0,24.0,-100.00,WSW,249,3.0,5.0,40,0.00,,,0.00,532.000000,,2013-01-08 17:34:00,
2013-01-08 12:43:00,47.0,24.0,-100.00,WSW,249,3.0,5.0,40,0.00,,,0.00,532.000000,,2013-01-08 17:43:00,
2013-01-08 12:54:00,47.0,24.0,-100.00,WSW,249,3.0,5.0,40,0.00,,,0.00,532.000000,,2013-01-08 17:54:00,
2013-01-08 13:01:00,47.0,24.0,-100.00,WSW,250,3.0,5.0,40,0.00,,,0.00,542.000000,,2013-01-08 18:01:00,
2013-01-08 13:24:00,47.0,24.0,-100.00,WSW,250,3.0,5.0,40,0.00,,,0.00,542.000000,,2013-01-08 18:24:00,
2013-01-08 13:33:00,47.0,24.0,-100.00,WSW,250,3.0,5.0,40,0.00,,,0.00,542.000000,,2013-01-08 18:33:00,
2013-01-08 13:43:00,47.0,24.0,-100.00,WSW,250,3.0,5.0,40,0.00,,,0.00,542.000000,,2013-01-08 18:43:00,
2013-01-08 13:53:00,47.0,24.0,-100.00,WSW,250,3.0,5.0,40,0.00,,,0.00,542.000000,,2013-01-08 18:53:00,
2013-01-08 14:01:00,48.0,24.0,-100.00,NW,321,3.0,5.0,38,0.00,,,0.00,564.000000,,2013-01-08 19:01:00,
2013-01-08 14:33:00,48.0,24.0,-100.00,NW,321,3.0,5.0,38,0.00,,,0.00,564.000000,,2013-01-08 19:33:00,
2013-01-08 14:43:00,48.0,24.0,-100.00,NW,321,3.0,5.0,38,0.00,,,0.00,564.000000,,2013-01-08 19:43:00,
2013-01-08 14:53:00,48.0,24.0,-100.00,NW,321,3.0,5.0,38,0.00,,,0.00,564.000000,,2013-01-08 19:53:00,
2013-01-08 15:01:00,47.0,24.0,-100.00,SW,227,4.0,7.0,40,0.00,,,0.00,506.000000,,2013-01-08 20:01:00,
2013-01-08 15:23:00,47.0,24.0,-100.00,SW,227,4.0,7.0,40,0.00,,,0.00,506.000000,,2013-01-08 20:23:00,
2013-01-08 15:33:00,47.0,24.0,-100.00,SW,227,4.0,7.0,40,0.00,,,0.00,506.000000,,2013-01-08 20:33:00,
2013-01-08 15:43:00,47.0,24.0,-100.00,SW,227,4.0,7.0,40,0.00,,,0.00,506.000000,,2013-01-08 20:43:00,
2013-01-08 15:54:00,47.0,24.0,-100.00,SW,227,4.0,7.0,40,0.00,,,0.00,506.000000,,2013-01-08 20:54:00,
2013-01-08 16:01:00,48.0,25.0,-100.00,SW,221,5.0,8.0,40,0.00,,,0.00,365.000000,,2013-01-08 21:01:00,
2013-01-08 16:33:00,48.0,25.0,-100.00,SW,221,5.0,8.0,40,0.00,,,0.00,365.000000,,2013-01-08 21:33:00,
2013-01-08 16:43:00,48.0,25.0,-100.00,SW,221,5.0,8.0,40,0.00,,,0.00,365.000000,,2013-01-08 21:43:00,
2013-01-08 16:53:00,48.0,25.0,-100.00,SW,221,5.0,8.0,40,0.00,,,0.00,365.000000,,2013-01-08 21:53:00,
2013-01-08 17:01:00,43.0,23.0,-100.00,SW,232,5.0,9.0,45,0.00,,,0.00,176.000000,,2013-01-08 22:01:00,
2013-01-08 17:33:00,43.0,23.0,-100.00,SW,232,5.0,9.0,45,0.00,,,0.00,176.000000,,2013-01-08 22:33:00,
2013-01-08 17:43:00,43.0,23.0,-100.00,SW,232,5.0,9.0,45,0.00,,,0.00,176.000000,,2013-01-08 22:43:00,
2013-01-08 17:53:00,43.0,23.0,-100.00,SW,232,5.0,9.0,45,0.00,,,0.00,176.000000,,2013-01-08 22:53:00,
2013-01-08 18:01:00,39.0,20.0,-100.00,SSW,204,5.0,7.0,46,0.00,,,0.00,8.000000,,2013-01-08 23:01:00,
2013-01-08 18:33:00,39.0,20.0,-100.00,SSW,204,5.0,7.0,46,0.00,,,0.00,8.000000,,2013-01-08 23:33:00,
2013-01-08 18:43:00,39.0,20.0,-100.00,SSW,204,5.0,7.0,46,0.00,,,0.00,8.000000,,2013-01-08 23:43:00,
2013-01-08 18:53:00,39.0,20.0,-100.00,SSW,204,5.0,7.0,46,0.00,,,0.00,8.000000,,2013-01-08 23:53:00,
2013-01-08 19:01:00,38.0,16.0,-100.00,South,174,2.0,7.0,41,0.00,,,0.00,0.000000,,2013-01-09 00:01:00,
2013-01-08 19:33:00,38.0,16.0,-100.00,South,174,2.0,7.0,41,0.00,,,0.00,0.000000,,2013-01-09 00:33:00,
2013-01-08 19:43:00,38.0,16.0,-100.00,South,174,2.0,7.0,41,0.00,,,0.00,0.000000,,2013-01-09 00:43:00,
2013-01-08 19:53:00,38.0,16.0,-100.00,South,174,2.0,7.0,41,0.00,,,0.00,0.000000,,2013-01-09 00:53:00,
2013-01-08 20:01:00,37.0,18.0,-100.00,SSW,201,4.0,6.0,45,0.00,,,0.00,0.000000,,2013-01-09 01:01:00,
2013-01-08 20:33:00,37.0,18.0,-100.00,SSW,201,4.0,6.0,45,0.00,,,0.00,0.000000,,2013-01-09 01:33:00,
2013-01-08 20:43:00,37.0,18.0,-100.00,SSW,201,4.0,6.0,45,0.00,,,0.00,0.000000,,2013-01-09 01:43:00,
2013-01-08 20:53:00,37.0,18.0,-100.00,SSW,201,4.0,6.0,45,0.00,,,0.00,0.000000,,2013-01-09 01:53:00,
2013-01-08 21:01:00,37.0,18.0,-100.00,SW,231,4.0,5.0,45,0.00,,,0.00,0.000000,,2013-01-09 02:01:00,
2013-01-08 21:33:00,37.0,18.0,-100.00,SW,231,4.0,5.0,45,0.00,,,0.00,0.000000,,2013-01-09 02:33:00,
2013-01-08 21:43:00,37.0,18.0,-100.00,SW,231,4.0,5.0,45,0.00,,,0.00,0.000000,,2013-01-09 02:43:00,
2013-01-08 21:53:00,37.0,18.0,-100.00,SW,231,4.0,5.0,45,0.00,,,0.00,0.000000,,2013-01-09 02:53:00,
2013-01-08 22:01:00,37.0,18.0,-100.00,SSW,206,3.0,6.0,45,0.00,,,0.00,0.000000,,2013-01-09 03:01:00,
2013-01-08 22:33:00,37.0,18.0,-100.00,SSW,206,3.0,6.0,45,0.00,,,0.00,0.000000,,2013-01-09 03:33:00,
2013-01-08 22:43:00,37.0,18.0,-100.00,SSW,206,3.0,6.0,45,0.00,,,0.00,0.000000,,2013-01-09 03:43:00,
2013-01-08 22:53:00,37.0,18.0,-100.00,SSW,206,3.0,6.0,45,0.00,,,0.00,0.000000,,2013-01-09 03:53:00,
2013-01-08 23:01:00,36.0,17.0,-100.00,SSW,206,3.0,4.0,45,0.00,,,0.00,0.000000,,2013-01-09 04:01:00,
2013-01-08 23:23:00,36.0,17.0,-100.00,SSW,206,3.0,4.0,45,0.00,,,0.00,0.000000,,2013-01-09 04:23:00,
2013-01-08 23:33:00,36.0,17.0,-100.00,SSW,206,3.0,4.0,45,0.00,,,0.00,0.000000,,2013-01-09 04:33:00,
2013-01-08 23:43:00,36.0,17.0,-100.00,SSW,206,3.0,4.0,45,0.00,,,0.00,0.000000,,2013-01-09 04:43:00,
2013-01-08 23:52:00,36.0,17.0,-100.00,SSW,206,3.0,4.0,45,0.00,,,0.00,0.000000,,2013-01-09 04:52:00,